Terminal Aerodrome Forecast
Issued by NWS Green Bay, WI

Home | Current Version | Previous Version | Text Only | Print | Product List | Glossary On
Versions: 1 2 3 4 5 6 7 8 9 10 11 12 13 14 15 16 17 18 19 20 21 22 23 24 25 26 27 28 29 30 31 32 33 34 35 36 37 38 39 40 41 42 43 44 45 46 47
000
FTUS43 KGRB 210500
TAFGRB
TAF
KGRB 210527Z 2106/2206 VRB03KT 3SM BR SCT040 BKN200
      TEMPO 2106/2110 3/4SM BR VV002
     FM211600 10006KT P6SM VCSH SCT035 BKN100
      TEMPO 2122/2202 2SM TSRA BKN020CB OVC035
     FM220300 VRB03KT 3SM BR VCSH SCT020 BKN035=

USA.gov is the U.S. government's official web portal to all federal, state and local government web resources and services.